PWSweather.com
Personal Weather Stations
Station Observations
KVAGLENALL
West Henrico, Glen Allen, VA 23060-6503

West HenricoGlen Allen, VA 23060-6503

Lat: 37.6554, Lon: -77.5693

Elevation: 273

Station Type: Davis Vantage Pro II

www.glenallenweather.com

High Low Average
Temperature 89.6°F32.0°C 73.9°F23.3°C 80.4°F26.9°C
Dew Point 77.4°F25.2°C 70.8°F21.6°C 73.6°F23.1°C
Winds 12.0 mph 19.3 kmh 2.0 mph 3.2 kmh 5.0 mph SW8.0 kmh SW
Wind Gusts 15.1 mph24.3 kmh 4.0 mph6.4 kmh 9.0 mph14.5 kmh
Humidity 93% 61% 81%
Pressure 29.70 in1005.8 mb 29.56 in1001.0 mb -
Precipitation 0.00 in0.0 mm - -
Hour Temp Dew Point Humidity Winds Wind Gusts Pressure Precip Precip Rate Daily Precip Total
12:00 AM 75.7°F24.3°C 73.2°F22.9°C 92% 3.0 mph S4.8 kmh S 4.0 mph6.4 kmh 29.71 in1006.1 mb 0.00 in0.0 mm 0.00 in0.0 mm 0.00 in0.0 mm
01:00 AM 75.8°F24.3°C 73.3°F22.9°C 92% 4.0 mph SW6.4 kmh SW 5.1 mph8.2 kmh 29.70 in1005.8 mb 0.00 in0.0 mm 0.00 in0.0 mm 0.00 in0.0 mm
02:00 AM 75.1°F23.9°C 72.9°F22.7°C 93% 4.0 mph S6.4 kmh S 5.1 mph8.2 kmh 29.69 in1005.4 mb 0.00 in0.0 mm 0.00 in0.0 mm 0.00 in0.0 mm
03:00 AM 75.0°F23.9°C 72.5°F22.5°C 92% 3.0 mph SSW4.8 kmh SSW 4.0 mph6.4 kmh 29.66 in1004.4 mb 0.00 in0.0 mm 0.00 in0.0 mm 0.00 in0.0 mm
04:00 AM 74.7°F23.7°C 72.5°F22.5°C 93% 2.0 mph S3.2 kmh S 5.1 mph8.2 kmh 29.66 in1004.4 mb 0.00 in0.0 mm 0.00 in0.0 mm 0.00 in0.0 mm
05:00 AM 74.6°F23.7°C 72.1°F22.3°C 92% 4.0 mph SW6.4 kmh SW 5.1 mph8.2 kmh 29.65 in1004.1 mb 0.00 in0.0 mm 0.00 in0.0 mm 0.00 in0.0 mm
06:00 AM 73.9°F23.3°C 71.7°F22.1°C 93% 5.0 mph SW8.0 kmh SW 10.1 mph16.3 kmh 29.65 in1004.1 mb 0.00 in0.0 mm 0.00 in0.0 mm 0.00 in0.0 mm
07:00 AM 74.6°F23.7°C 72.1°F22.3°C 92% 5.0 mph SSW8.0 kmh SSW 5.1 mph8.2 kmh 29.65 in1004.1 mb 0.00 in0.0 mm 0.00 in0.0 mm 0.00 in0.0 mm
08:00 AM 76.2°F24.6°C 73.0°F22.8°C 90% 4.0 mph WSW6.4 kmh WSW 11.1 mph17.9 kmh 29.66 in1004.4 mb 0.00 in0.0 mm 0.00 in0.0 mm 0.00 in0.0 mm
09:00 AM 81.4°F27.4°C 75.8°F24.3°C 83% 12.0 mph SSW19.3 kmh SSW 14.1 mph22.7 kmh 29.65 in1004.1 mb 0.04 in1.0 mm 0.00 in0.0 mm 0.04 in1.0 mm
10:00 AM 84.1°F28.9°C 76.9°F24.9°C 79% 3.0 mph SSW4.8 kmh SSW 10.1 mph16.3 kmh 29.66 in1004.4 mb 0.00 in0.0 mm 0.00 in0.0 mm 0.04 in1.0 mm
11:00 AM 85.0°F29.4°C 77.4°F25.2°C 78% 8.0 mph S12.9 kmh S 9.1 mph14.6 kmh 29.65 in1004.1 mb 0.00 in0.0 mm 0.00 in0.0 mm 0.04 in1.0 mm
12:00 PM 87.8°F31.0°C 76.4°F24.7°C 69% 9.0 mph SSW14.5 kmh SSW 14.1 mph22.7 kmh 29.65 in1004.1 mb 0.00 in0.0 mm 0.00 in0.0 mm 0.04 in1.0 mm
01:00 PM 87.7°F30.9°C 76.7°F24.8°C 70% 5.0 mph SW8.0 kmh SW 7.1 mph11.4 kmh 29.64 in1003.7 mb 0.00 in0.0 mm 0.00 in0.0 mm 0.04 in1.0 mm
02:00 PM 88.4°F31.3°C 75.2°F24.0°C 65% 7.0 mph S11.3 kmh S 13.1 mph21.1 kmh 29.62 in1003.0 mb 0.00 in0.0 mm 0.00 in0.0 mm 0.04 in1.0 mm
03:00 PM 89.6°F32.0°C 75.3°F24.1°C 63% 2.0 mph SW3.2 kmh SW 9.1 mph14.6 kmh 29.59 in1002.0 mb 0.00 in0.0 mm 0.00 in0.0 mm 0.04 in1.0 mm
04:00 PM 88.9°F31.6°C 73.8°F23.2°C 61% 8.0 mph SW12.9 kmh SW 15.1 mph24.3 kmh 29.58 in1001.7 mb 0.00 in0.0 mm 0.00 in0.0 mm 0.04 in1.0 mm
05:00 PM 86.0°F30.0°C 72.4°F22.4°C 64% 5.0 mph S8.0 kmh S 12.1 mph19.5 kmh 29.57 in1001.4 mb 0.00 in0.0 mm 0.00 in0.0 mm 0.04 in1.0 mm
06:00 PM 81.8°F27.7°C 73.5°F23.1°C 76% 9.0 mph SSW14.5 kmh SSW 13.1 mph21.1 kmh 29.56 in1001.0 mb 0.01 in0.3 mm 0.00 in0.0 mm 0.05 in1.3 mm
07:00 PM 80.4°F26.9°C 72.9°F22.7°C 78% 4.0 mph SW6.4 kmh SW 11.1 mph17.9 kmh 29.56 in1001.0 mb 0.00 in0.0 mm 0.00 in0.0 mm 0.05 in1.3 mm
08:00 PM 79.2°F26.2°C 72.5°F22.5°C 80% 2.0 mph SW3.2 kmh SW 8.1 mph13.0 kmh 29.58 in1001.7 mb 0.00 in0.0 mm 0.00 in0.0 mm 0.05 in1.3 mm
09:00 PM 78.5°F25.8°C 72.5°F22.5°C 82% 7.0 mph W11.3 kmh W 7.1 mph11.4 kmh 29.59 in1002.0 mb 0.00 in0.0 mm 0.00 in0.0 mm 0.05 in1.3 mm
10:00 PM 77.9°F25.5°C 72.7°F22.6°C 84% 4.0 mph SW6.4 kmh SW 5.1 mph8.2 kmh 29.60 in1002.4 mb 0.00 in0.0 mm 0.00 in0.0 mm 0.05 in1.3 mm
11:00 PM 77.3°F25.2°C 72.1°F22.3°C 84% 4.0 mph SSW6.4 kmh SSW 7.1 mph11.4 kmh 29.62 in1003.0 mb 0.00 in0.0 mm 0.00 in0.0 mm 0.05 in1.3 mm